Lamoure, North Dakota
Current Conditions -  °F | °C
As of 7:35 AM on Thursday 23 Oct 2014 (Local Time) from KGWR Reporting Station
Clear Clear  
Wind Chill: 32°   Ceiling: Unl
Heat Index: 39°   Visibility: 10mi
Dew Point: 39°   Wind: 13mph
Humidity: 100%   Direction: 210°SSW
Pressure: 29.94"   Gusts: NA
Location:  46.36°N, 98.29°W
Report Text: KGWR 231235Z AUTO 21011KT 10SM CLR 04/04 A2994 RMK A01 P000
Loading
Personal Weather Stations






























Interactive Weather Map
Tropical Storm Tracking
New forecast layout! Learn more

10-Day Weather Forecast

Advertisements
Track Severe Weather on mobile